Terminal Aerodrome Forecast
Issued by NWS Glasgow, MT

Home | Current Version | Previous Version | Text Only | Print | Product List | Glossary On
Versions: 1 2 3 4 5 6 7 8 9 10 11 12 13 14 15 16
000
FTUS45 KGGW 180533
TAFGGW
TAF
KGGW 180533Z 1806/1906 32009KT P6SM SCT050 BKN120
     FM181400 VRB03KT P6SM SCT100
     FM181800 26009KT P6SM FEW110 SCT200=

USA.gov is the U.S. government's official web portal to all federal, state and local government web resources and services.